sensor_id;sensor_type;location;lat;lon;timestamp;pressure;altitude;pressure_sealevel;temperature;humidity
6028;BME280;3042;43.194;27.646;2023-07-16T00:00:15;101772.78;;;29.82;100.00
6028;BME280;3042;43.194;27.646;2023-07-16T00:02:44;101771.91;;;29.81;100.00
6028;BME280;3042;43.194;27.646;2023-07-16T00:05:11;101774.59;;;29.80;100.00
6028;BME280;3042;43.194;27.646;2023-07-16T00:07:38;101786.34;;;29.70;100.00
6028;BME280;3042;43.194;27.646;2023-07-16T00:10:05;101687.66;;;29.26;100.00
6028;BME280;3042;43.194;27.646;2023-07-16T00:12:34;101765.03;;;29.70;100.00
6028;BME280;3042;43.194;27.646;2023-07-16T00:15:01;101777.56;;;29.61;100.00
6028;BME280;3042;43.194;27.646;2023-07-16T00:17:28;101774.91;;;29.61;100.00
6028;BME280;3042;43.194;27.646;2023-07-16T00:19:55;101772.31;;;29.58;100.00
6028;BME280;3042;43.194;27.646;2023-07-16T00:22:22;101765.22;;;29.57;100.00
6028;BME280;3042;43.194;27.646;2023-07-16T00:24:49;101721.41;;;29.25;100.00
6028;BME280;3042;43.194;27.646;2023-07-16T00:27:16;101709.03;;;29.21;100.00
6028;BME280;3042;43.194;27.646;2023-07-16T00:29:44;101767.22;;;29.44;100.00
6028;BME280;3042;43.194;27.646;2023-07-16T00:32:12;101763.75;;;29.41;100.00
6028;BME280;3042;43.194;27.646;2023-07-16T00:34:39;101644.28;;;28.68;100.00
6028;BME280;3042;43.194;27.646;2023-07-16T00:37:06;101761.28;;;29.29;100.00
6028;BME280;3042;43.194;27.646;2023-07-16T00:39:33;101760.47;;;29.23;100.00
6028;BME280;3042;43.194;27.646;2023-07-16T00:42:00;101762.28;;;29.21;100.00
6028;BME280;3042;43.194;27.646;2023-07-16T00:44:27;101761.47;;;29.18;100.00
6028;BME280;3042;43.194;27.646;2023-07-16T00:46:55;101760.63;;;29.14;100.00
6028;BME280;3042;43.194;27.646;2023-07-16T00:49:23;101742.25;;;28.97;100.00
6028;BME280;3042;43.194;27.646;2023-07-16T00:51:52;101760.75;;;29.08;100.00
6028;BME280;3042;43.194;27.646;2023-07-16T00:54:19;101752.81;;;29.02;100.00
6028;BME280;3042;43.194;27.646;2023-07-16T00:56:46;101751.91;;;29.03;100.00
6028;BME280;3042;43.194;27.646;2023-07-16T00:59:13;101756.41;;;28.99;100.00
6028;BME280;3042;43.194;27.646;2023-07-16T01:01:40;101678.28;;;28.48;100.00
6028;BME280;3042;43.194;27.646;2023-07-16T01:04:09;101759.28;;;28.86;100.00
6028;BME280;3042;43.194;27.646;2023-07-16T01:06:55;101757.56;;;28.85;100.00
6028;BME280;3042;43.194;27.646;2023-07-16T01:09:24;101758.50;;;28.79;100.00
6028;BME280;3042;43.194;27.646;2023-07-16T01:11:53;101743.41;;;28.79;100.00
6028;BME280;3042;43.194;27.646;2023-07-16T01:14:21;101750.53;;;28.79;100.00
6028;BME280;3042;43.194;27.646;2023-07-16T01:16:50;101685.53;;;28.35;100.00
6028;BME280;3042;43.194;27.646;2023-07-16T01:19:25;101741.66;;;28.80;100.00
6028;BME280;3042;43.194;27.646;2023-07-16T01:22:11;101742.59;;;28.76;100.00
6028;BME280;3042;43.194;27.646;2023-07-16T01:24:58;101598.38;;;27.95;100.00
6028;BME280;3042;43.194;27.646;2023-07-16T01:27:50;101734.63;;;28.74;100.00
6028;BME280;3042;43.194;27.646;2023-07-16T01:30:21;101725.75;;;28.75;100.00
6028;BME280;3042;43.194;27.646;2023-07-16T01:32:48;101731.22;;;28.66;100.00
6028;BME280;3042;43.194;27.646;2023-07-16T01:35:16;101705.13;;;28.28;100.00
6028;BME280;3042;43.194;27.646;2023-07-16T01:37:43;101727.31;;;28.27;100.00
6028;BME280;3042;43.194;27.646;2023-07-16T01:40:11;101733.44;;;28.33;100.00
6028;BME280;3042;43.194;27.646;2023-07-16T01:42:39;101728.13;;;28.33;100.00
6028;BME280;3042;43.194;27.646;2023-07-16T01:45:06;101728.13;;;28.30;100.00
6028;BME280;3042;43.194;27.646;2023-07-16T01:47:40;101722.91;;;28.24;100.00
6028;BME280;3042;43.194;27.646;2023-07-16T01:50:11;101719.56;;;28.10;100.00
6028;BME280;3042;43.194;27.646;2023-07-16T01:52:38;101724.03;;;28.08;100.00
6028;BME280;3042;43.194;27.646;2023-07-16T01:55:06;101728.50;;;28.03;100.00
6028;BME280;3042;43.194;27.646;2023-07-16T01:57:33;101727.72;;;27.96;100.00
6028;BME280;3042;43.194;27.646;2023-07-16T02:00:00;101732.16;;;27.92;100.00
6028;BME280;3042;43.194;27.646;2023-07-16T02:02:27;101730.38;;;27.94;100.00
6028;BME280;3042;43.194;27.646;2023-07-16T02:04:55;101730.31;;;27.97;100.00
6028;BME280;3042;43.194;27.646;2023-07-16T02:07:22;101733.94;;;27.93;100.00
6028;BME280;3042;43.194;27.646;2023-07-16T02:09:50;101732.16;;;27.94;100.00
6028;BME280;3042;43.194;27.646;2023-07-16T02:12:17;101730.38;;;27.94;100.00
6028;BME280;3042;43.194;27.646;2023-07-16T02:14:44;101731.28;;;27.92;100.00
6028;BME280;3042;43.194;27.646;2023-07-16T02:17:11;101731.28;;;27.92;100.00
6028;BME280;3042;43.194;27.646;2023-07-16T02:19:38;101555.53;;;26.74;100.00
6028;BME280;3042;43.194;27.646;2023-07-16T02:22:07;101735.72;;;27.91;100.00
6028;BME280;3042;43.194;27.646;2023-07-16T02:24:34;101735.75;;;27.88;100.00
6028;BME280;3042;43.194;27.646;2023-07-16T02:27:02;101734.00;;;27.87;100.00
6028;BME280;3042;43.194;27.646;2023-07-16T02:29:30;101676.72;;;27.62;100.00
6028;BME280;3042;43.194;27.646;2023-07-16T02:31:58;101735.72;;;27.91;100.00
6028;BME280;3042;43.194;27.646;2023-07-16T02:34:25;101612.63;;;27.10;100.00
6028;BME280;3042;43.194;27.646;2023-07-16T02:36:52;101733.13;;;27.87;100.00
6028;BME280;3042;43.194;27.646;2023-07-16T02:39:20;101667.97;;;27.52;100.00
6028;BME280;3042;43.194;27.646;2023-07-16T02:41:47;101739.38;;;27.78;100.00
6028;BME280;3042;43.194;27.646;2023-07-16T02:44:14;101735.09;;;27.65;100.00
6028;BME280;3042;43.194;27.646;2023-07-16T02:46:41;101735.19;;;27.58;100.00
6028;BME280;3042;43.194;27.646;2023-07-16T02:49:09;101738.81;;;27.48;100.00
6028;BME280;3042;43.194;27.646;2023-07-16T02:51:36;101746.94;;;27.33;100.00
6028;BME280;3042;43.194;27.646;2023-07-16T02:54:03;101740.84;;;27.20;100.00
6028;BME280;3042;43.194;27.646;2023-07-16T02:56:32;101746.22;;;27.06;100.00
6028;BME280;3042;43.194;27.646;2023-07-16T02:58:59;101739.09;;;27.21;100.00
6028;BME280;3042;43.194;27.646;2023-07-16T03:01:26;101736.28;;;27.36;100.00
6028;BME280;3042;43.194;27.646;2023-07-16T03:03:53;101532.06;;;26.23;100.00
6028;BME280;3042;43.194;27.646;2023-07-16T03:06:20;101725.50;;;27.51;100.00
6028;BME280;3042;43.194;27.646;2023-07-16T03:08:47;101738.69;;;27.61;100.00
6028;BME280;3042;43.194;27.646;2023-07-16T03:11:14;101713.94;;;27.55;100.00
6028;BME280;3042;43.194;27.646;2023-07-16T03:13:42;101737.63;;;27.77;100.00
6028;BME280;3042;43.194;27.646;2023-07-16T03:16:09;101738.47;;;27.81;100.00
6028;BME280;3042;43.194;27.646;2023-07-16T03:18:36;101743.75;;;27.85;100.00
6028;BME280;3042;43.194;27.646;2023-07-16T03:21:03;101702.34;;;27.66;100.00
6028;BME280;3042;43.194;27.646;2023-07-16T03:23:30;101737.41;;;27.98;100.00
6028;BME280;3042;43.194;27.646;2023-07-16T03:25:57;101735.53;;;28.08;100.00
6028;BME280;3042;43.194;27.646;2023-07-16T03:28:24;101716.06;;;28.05;100.00
6028;BME280;3042;43.194;27.646;2023-07-16T03:30:53;101735.25;;;28.30;100.00
6028;BME280;3042;43.194;27.646;2023-07-16T03:33:20;101735.03;;;28.44;100.00
6028;BME280;3042;43.194;27.646;2023-07-16T03:35:49;101733.09;;;28.58;100.00
6028;BME280;3042;43.194;27.646;2023-07-16T03:38:16;101728.97;;;28.96;100.00
6028;BME280;3042;43.194;27.646;2023-07-16T03:40:46;101726.22;;;29.53;100.00
6028;BME280;3042;43.194;27.646;2023-07-16T03:43:14;101725.28;;;30.02;100.00
6028;BME280;3042;43.194;27.646;2023-07-16T03:45:41;101727.41;;;30.28;100.00
6028;BME280;3042;43.194;27.646;2023-07-16T03:48:09;101715.91;;;30.65;100.00
6028;BME280;3042;43.194;27.646;2023-07-16T03:50:36;101726.19;;;31.18;100.00
6028;BME280;3042;43.194;27.646;2023-07-16T03:53:03;101722.88;;;31.75;100.00
6028;BME280;3042;43.194;27.646;2023-07-16T03:55:30;101723.13;;;32.29;100.00
6028;BME280;3042;43.194;27.646;2023-07-16T03:57:57;101718.16;;;32.73;100.00
6028;BME280;3042;43.194;27.646;2023-07-16T04:00:24;101602.00;;;32.24;100.00
6028;BME280;3042;43.194;27.646;2023-07-16T04:02:51;101724.19;;;33.08;100.00
6028;BME280;3042;43.194;27.646;2023-07-16T04:05:19;101720.72;;;33.31;100.00
6028;BME280;3042;43.194;27.646;2023-07-16T04:07:46;101718.50;;;33.43;100.00
6028;BME280;3042;43.194;27.646;2023-07-16T04:10:13;101569.06;;;32.75;100.00
6028;BME280;3042;43.194;27.646;2023-07-16T04:12:40;101714.06;;;33.68;100.00
6028;BME280;3042;43.194;27.646;2023-07-16T04:15:08;101705.34;;;33.86;100.00
6028;BME280;3042;43.194;27.646;2023-07-16T04:17:36;101722.25;;;33.88;100.00
6028;BME280;3042;43.194;27.646;2023-07-16T04:20:04;101717.84;;;33.85;100.00
6028;BME280;3042;43.194;27.646;2023-07-16T04:22:33;101719.66;;;33.85;100.00
6028;BME280;3042;43.194;27.646;2023-07-16T04:25:00;101716.94;;;33.87;100.00
6028;BME280;3042;43.194;27.646;2023-07-16T04:27:28;101720.78;;;33.79;100.00
6028;BME280;3042;43.194;27.646;2023-07-16T04:29:55;101734.00;;;33.60;100.00
6028;BME280;3042;43.194;27.646;2023-07-16T04:32:22;101728.22;;;33.71;100.00
6028;BME280;3042;43.194;27.646;2023-07-16T04:34:49;101721.47;;;33.84;100.00
6028;BME280;3042;43.194;27.646;2023-07-16T04:37:16;101717.16;;;34.04;100.00
6028;BME280;3042;43.194;27.646;2023-07-16T04:39:44;101709.19;;;34.26;100.00
6028;BME280;3042;43.194;27.646;2023-07-16T04:42:11;101710.38;;;34.41;100.00
6028;BME280;3042;43.194;27.646;2023-07-16T04:44:38;101716.88;;;34.57;100.00
6028;BME280;3042;43.194;27.646;2023-07-16T04:47:05;101709.03;;;34.75;100.00
6028;BME280;3042;43.194;27.646;2023-07-16T04:49:34;101715.63;;;34.88;100.00
6028;BME280;3042;43.194;27.646;2023-07-16T04:52:01;101718.59;;;35.02;100.00
6028;BME280;3042;43.194;27.646;2023-07-16T04:54:28;101724.59;;;35.09;100.00
6028;BME280;3042;43.194;27.646;2023-07-16T04:56:56;101717.72;;;35.24;100.00
6028;BME280;3042;43.194;27.646;2023-07-16T04:59:23;101715.63;;;35.51;100.00
6028;BME280;3042;43.194;27.646;2023-07-16T05:01:50;101720.78;;;35.76;100.00
6028;BME280;3042;43.194;27.646;2023-07-16T05:04:17;101638.78;;;35.45;100.00
6028;BME280;3042;43.194;27.646;2023-07-16T05:06:44;101731.56;;;35.76;100.00
6028;BME280;3042;43.194;27.646;2023-07-16T05:09:11;101667.56;;;35.23;100.00
6028;BME280;3042;43.194;27.646;2023-07-16T05:11:38;101745.47;;;35.65;100.00
6028;BME280;3042;43.194;27.646;2023-07-16T05:14:07;101569.09;;;34.81;100.00
6028;BME280;3042;43.194;27.646;2023-07-16T05:16:34;101713.81;;;35.72;100.00
6028;BME280;3042;43.194;27.646;2023-07-16T05:19:01;101728.81;;;35.97;100.00
6028;BME280;3042;43.194;27.646;2023-07-16T05:21:28;101735.66;;;36.04;100.00
6028;BME280;3042;43.194;27.646;2023-07-16T05:23:55;101739.75;;;36.12;100.00
6028;BME280;3042;43.194;27.646;2023-07-16T05:26:22;101727.22;;;35.92;100.00
6028;BME280;3042;43.194;27.646;2023-07-16T05:28:49;101676.72;;;35.98;100.00
6028;BME280;3042;43.194;27.646;2023-07-16T05:31:17;101735.91;;;36.37;100.00
6028;BME280;3042;43.194;27.646;2023-07-16T05:33:44;101734.81;;;36.60;100.00
6028;BME280;3042;43.194;27.646;2023-07-16T05:36:11;101744.97;;;36.53;100.00
6028;BME280;3042;43.194;27.646;2023-07-16T05:38:38;101744.84;;;36.38;100.00
6028;BME280;3042;43.194;27.646;2023-07-16T05:41:05;101742.00;;;36.41;100.00
6028;BME280;3042;43.194;27.646;2023-07-16T05:43:32;101738.13;;;36.65;100.00
6028;BME280;3042;43.194;27.646;2023-07-16T05:45:59;101742.28;;;36.53;100.00
6028;BME280;3042;43.194;27.646;2023-07-16T05:48:28;101660.88;;;36.29;100.00
6028;BME280;3042;43.194;27.646;2023-07-16T05:50:55;101732.50;;;37.06;100.00
6028;BME280;3042;43.194;27.646;2023-07-16T05:53:22;101727.44;;;37.35;100.00
6028;BME280;3042;43.194;27.646;2023-07-16T05:55:49;101731.00;;;37.86;100.00
6028;BME280;3042;43.194;27.646;2023-07-16T05:58:17;101700.91;;;38.26;100.00
6028;BME280;3042;43.194;27.646;2023-07-16T06:00:44;101730.53;;;38.27;100.00
6028;BME280;3042;43.194;27.646;2023-07-16T06:03:11;101727.13;;;38.39;100.00
6028;BME280;3042;43.194;27.646;2023-07-16T06:05:39;101716.41;;;38.70;100.00
6028;BME280;3042;43.194;27.646;2023-07-16T06:08:06;101708.19;;;39.17;100.00
6028;BME280;3042;43.194;27.646;2023-07-16T06:10:34;101689.09;;;39.92;100.00
6028;BME280;3042;43.194;27.646;2023-07-16T06:13:01;101680.06;;;40.47;100.00
6028;BME280;3042;43.194;27.646;2023-07-16T06:15:29;101605.59;;;40.40;100.00
6028;BME280;3042;43.194;27.646;2023-07-16T06:17:56;101649.78;;;40.68;100.00
6028;BME280;3042;43.194;27.646;2023-07-16T06:20:23;101624.38;;;40.56;100.00
6028;BME280;3042;43.194;27.646;2023-07-16T06:22:51;101676.09;;;41.06;100.00
6028;BME280;3042;43.194;27.646;2023-07-16T06:25:18;101572.81;;;40.83;100.00
6028;BME280;3042;43.194;27.646;2023-07-16T06:27:45;101579.34;;;40.93;100.00
6028;BME280;3042;43.194;27.646;2023-07-16T06:30:12;101693.31;;;41.19;100.00
6028;BME280;3042;43.194;27.646;2023-07-16T06:32:39;101659.13;;;41.92;100.00
6028;BME280;3042;43.194;27.646;2023-07-16T06:35:07;101664.66;;;42.51;100.00
6028;BME280;3042;43.194;27.646;2023-07-16T06:37:34;101659.19;;;43.11;100.00
6028;BME280;3042;43.194;27.646;2023-07-16T06:40:03;101649.53;;;43.18;95.95
6028;BME280;3042;43.194;27.646;2023-07-16T06:42:31;101651.31;;;43.64;93.84
6028;BME280;3042;43.194;27.646;2023-07-16T06:44:58;101649.53;;;44.08;90.55
6028;BME280;3042;43.194;27.646;2023-07-16T06:47:25;101631.94;;;44.65;90.23
6028;BME280;3042;43.194;27.646;2023-07-16T06:49:52;101642.06;;;44.75;88.36
6028;BME280;3042;43.194;27.646;2023-07-16T06:52:19;101560.47;;;43.65;83.04
6028;BME280;3042;43.194;27.646;2023-07-16T06:54:47;101662.00;;;44.22;84.88
6028;BME280;3042;43.194;27.646;2023-07-16T06:57:16;101680.00;;;43.46;84.99
6028;BME280;3042;43.194;27.646;2023-07-16T06:59:43;101713.78;;;42.00;86.93
6028;BME280;3042;43.194;27.646;2023-07-16T07:02:10;101722.19;;;41.71;92.30
6028;BME280;3042;43.194;27.646;2023-07-16T07:04:37;101723.28;;;41.30;93.77
6028;BME280;3042;43.194;27.646;2023-07-16T07:07:06;101664.91;;;40.58;96.78
6028;BME280;3042;43.194;27.646;2023-07-16T07:09:33;101744.03;;;39.94;95.70
6028;BME280;3042;43.194;27.646;2023-07-16T07:12:00;101738.25;;;39.86;99.07
6028;BME280;3042;43.194;27.646;2023-07-16T07:14:29;101640.22;;;39.38;100.00
6028;BME280;3042;43.194;27.646;2023-07-16T07:16:57;101693.16;;;39.85;100.00
6028;BME280;3042;43.194;27.646;2023-07-16T07:19:24;101731.75;;;39.88;99.39
6028;BME280;3042;43.194;27.646;2023-07-16T07:21:51;101731.84;;;39.73;96.90
6028;BME280;3042;43.194;27.646;2023-07-16T07:24:18;101746.69;;;39.37;94.24
6028;BME280;3042;43.194;27.646;2023-07-16T07:26:47;101663.09;;;38.88;90.49
6028;BME280;3042;43.194;27.646;2023-07-16T07:29:14;101694.84;;;39.14;88.21
6028;BME280;3042;43.194;27.646;2023-07-16T07:31:42;101736.97;;;39.18;87.59
6028;BME280;3042;43.194;27.646;2023-07-16T07:34:09;101746.88;;;38.88;86.44
6028;BME280;3042;43.194;27.646;2023-07-16T07:36:36;101743.84;;;38.94;81.86
6028;BME280;3042;43.194;27.646;2023-07-16T07:39:03;101755.22;;;38.53;85.13
6028;BME280;3042;43.194;27.646;2023-07-16T07:41:49;101750.16;;;38.31;76.94
6028;BME280;3042;43.194;27.646;2023-07-16T07:44:16;101727.91;;;38.73;78.29
6028;BME280;3042;43.194;27.646;2023-07-16T07:46:45;101730.97;;;38.67;79.81
6028;BME280;3042;43.194;27.646;2023-07-16T07:49:12;101723.88;;;38.80;74.37
6028;BME280;3042;43.194;27.646;2023-07-16T07:51:39;101604.75;;;37.91;72.72
6028;BME280;3042;43.194;27.646;2023-07-16T07:54:06;101707.00;;;39.07;72.74
6028;BME280;3042;43.194;27.646;2023-07-16T07:56:33;101699.88;;;39.06;71.45
6028;BME280;3042;43.194;27.646;2023-07-16T07:59:00;101695.25;;;39.22;70.75
6028;BME280;3042;43.194;27.646;2023-07-16T08:01:27;101693.13;;;39.28;69.09
6028;BME280;3042;43.194;27.646;2023-07-16T08:03:56;101702.59;;;39.20;69.54
6028;BME280;3042;43.194;27.646;2023-07-16T08:06:23;101701.38;;;39.10;70.45
6028;BME280;3042;43.194;27.646;2023-07-16T08:08:51;101580.19;;;38.58;71.95
6028;BME280;3042;43.194;27.646;2023-07-16T08:11:18;101710.44;;;38.95;71.51
6028;BME280;3042;43.194;27.646;2023-07-16T08:13:45;101716.63;;;38.97;70.89
6028;BME280;3042;43.194;27.646;2023-07-16T08:16:12;101718.09;;;38.87;72.03
6028;BME280;3042;43.194;27.646;2023-07-16T08:18:40;101731.47;;;38.42;68.09
6028;BME280;3042;43.194;27.646;2023-07-16T08:21:08;101547.38;;;37.88;68.68
6028;BME280;3042;43.194;27.646;2023-07-16T08:23:35;101726.59;;;38.80;68.46
6028;BME280;3042;43.194;27.646;2023-07-16T08:26:02;101728.31;;;38.81;65.36
6028;BME280;3042;43.194;27.646;2023-07-16T08:28:29;101709.81;;;38.90;63.98
6028;BME280;3042;43.194;27.646;2023-07-16T08:30:56;101713.34;;;38.92;64.82
6028;BME280;3042;43.194;27.646;2023-07-16T08:33:23;101737.25;;;38.36;60.25
6028;BME280;3042;43.194;27.646;2023-07-16T08:35:50;101740.09;;;38.33;61.45
6028;BME280;3042;43.194;27.646;2023-07-16T08:38:19;101745.53;;;38.17;61.97
6028;BME280;3042;43.194;27.646;2023-07-16T08:40:47;101748.38;;;38.14;62.24
6028;BME280;3042;43.194;27.646;2023-07-16T08:43:15;101753.78;;;38.14;64.42
6028;BME280;3042;43.194;27.646;2023-07-16T08:45:44;101731.69;;;38.55;64.69
6028;BME280;3042;43.194;27.646;2023-07-16T08:48:13;101723.47;;;38.72;64.04
6028;BME280;3042;43.194;27.646;2023-07-16T08:50:41;101709.78;;;38.75;63.43
6028;BME280;3042;43.194;27.646;2023-07-16T08:53:08;101726.09;;;38.58;62.96
6028;BME280;3042;43.194;27.646;2023-07-16T08:55:37;101748.50;;;37.95;66.90
6028;BME280;3042;43.194;27.646;2023-07-16T08:58:05;101727.91;;;38.26;67.07
6028;BME280;3042;43.194;27.646;2023-07-16T09:00:32;101713.09;;;38.64;67.97
6028;BME280;3042;43.194;27.646;2023-07-16T09:03:03;101572.09;;;37.80;68.04
6028;BME280;3042;43.194;27.646;2023-07-16T09:05:31;101710.59;;;38.61;69.94
6028;BME280;3042;43.194;27.646;2023-07-16T09:08:01;101694.75;;;38.85;68.78
6028;BME280;3042;43.194;27.646;2023-07-16T09:10:29;101635.81;;;38.30;67.94
6028;BME280;3042;43.194;27.646;2023-07-16T09:12:58;101702.75;;;38.57;67.93
6028;BME280;3042;43.194;27.646;2023-07-16T09:15:27;101691.25;;;38.83;68.90
6028;BME280;3042;43.194;27.646;2023-07-16T09:17:54;101665.66;;;39.05;70.10
6028;BME280;3042;43.194;27.646;2023-07-16T09:20:22;101573.66;;;38.62;69.36
6028;BME280;3042;43.194;27.646;2023-07-16T09:22:50;101685.13;;;38.96;70.10
6028;BME280;3042;43.194;27.646;2023-07-16T09:25:25;101675.75;;;39.17;68.32
6028;BME280;3042;43.194;27.646;2023-07-16T09:27:52;101686.63;;;38.85;68.35
6028;BME280;3042;43.194;27.646;2023-07-16T09:30:20;101670.13;;;39.20;67.19
6028;BME280;3042;43.194;27.646;2023-07-16T09:32:47;101561.56;;;38.53;68.04
6028;BME280;3042;43.194;27.646;2023-07-16T09:35:15;101685.16;;;39.10;68.59
6028;BME280;3042;43.194;27.646;2023-07-16T09:37:43;101674.09;;;38.84;69.37
6028;BME280;3042;43.194;27.646;2023-07-16T09:40:11;101682.78;;;38.90;67.93
6028;BME280;3042;43.194;27.646;2023-07-16T09:42:39;101687.31;;;38.89;68.33
6028;BME280;3042;43.194;27.646;2023-07-16T09:45:08;101690.47;;;38.81;68.08
6028;BME280;3042;43.194;27.646;2023-07-16T09:47:37;101721.91;;;38.05;64.39
6028;BME280;3042;43.194;27.646;2023-07-16T09:50:05;101710.75;;;38.11;63.40
6028;BME280;3042;43.194;27.646;2023-07-16T09:52:32;101691.75;;;38.60;64.61
6028;BME280;3042;43.194;27.646;2023-07-16T09:55:02;101680.22;;;38.72;63.90
6028;BME280;3042;43.194;27.646;2023-07-16T09:57:34;101508.88;;;37.52;65.42
6028;BME280;3042;43.194;27.646;2023-07-16T10:00:05;101653.03;;;38.75;66.83
6028;BME280;3042;43.194;27.646;2023-07-16T10:02:34;101656.19;;;39.12;63.56
6028;BME280;3042;43.194;27.646;2023-07-16T10:05:13;101652.16;;;39.19;61.96
6028;BME280;3042;43.194;27.646;2023-07-16T10:07:40;101649.72;;;39.15;61.30
6028;BME280;3042;43.194;27.646;2023-07-16T10:10:08;101641.25;;;39.35;60.51
6028;BME280;3042;43.194;27.646;2023-07-16T10:12:36;101664.88;;;39.03;60.54
6028;BME280;3042;43.194;27.646;2023-07-16T10:15:04;101660.63;;;38.99;59.87
6028;BME280;3042;43.194;27.646;2023-07-16T10:17:32;101650.78;;;39.12;60.14
6028;BME280;3042;43.194;27.646;2023-07-16T10:20:01;101509.91;;;37.97;60.44
6028;BME280;3042;43.194;27.646;2023-07-16T10:22:39;101676.00;;;38.82;58.70
6028;BME280;3042;43.194;27.646;2023-07-16T10:25:09;101524.06;;;37.87;58.90
6028;BME280;3042;43.194;27.646;2023-07-16T10:27:37;101670.25;;;38.73;60.10
6028;BME280;3042;43.194;27.646;2023-07-16T10:30:05;101535.16;;;37.96;60.44
6028;BME280;3042;43.194;27.646;2023-07-16T10:32:33;101601.03;;;38.40;59.41
6028;BME280;3042;43.194;27.646;2023-07-16T10:35:01;101629.91;;;38.23;58.74
6028;BME280;3042;43.194;27.646;2023-07-16T10:37:28;101663.84;;;38.75;58.23
6028;BME280;3042;43.194;27.646;2023-07-16T10:39:57;101645.56;;;39.09;58.52
6028;BME280;3042;43.194;27.646;2023-07-16T10:42:25;101647.91;;;39.01;58.36
6028;BME280;3042;43.194;27.646;2023-07-16T10:44:54;101515.66;;;37.44;57.18
6028;BME280;3042;43.194;27.646;2023-07-16T10:47:23;101633.84;;;38.50;58.05
6028;BME280;3042;43.194;27.646;2023-07-16T10:49:51;101666.31;;;38.64;58.79
6028;BME280;3042;43.194;27.646;2023-07-16T10:52:20;101668.41;;;38.59;61.48
6028;BME280;3042;43.194;27.646;2023-07-16T10:54:47;101676.78;;;38.38;62.25
6028;BME280;3042;43.194;27.646;2023-07-16T10:57:17;101679.56;;;38.53;63.26
6028;BME280;3042;43.194;27.646;2023-07-16T10:59:45;101627.78;;;38.44;63.47
6028;BME280;3042;43.194;27.646;2023-07-16T11:02:15;101673.66;;;38.46;61.57
6028;BME280;3042;43.194;27.646;2023-07-16T11:04:42;101637.06;;;38.25;62.21
6028;BME280;3042;43.194;27.646;2023-07-16T11:07:10;101671.72;;;38.32;62.00
6028;BME280;3042;43.194;27.646;2023-07-16T11:09:41;101651.69;;;38.20;62.65
6028;BME280;3042;43.194;27.646;2023-07-16T11:12:10;101449.31;;;36.92;59.85
6028;BME280;3042;43.194;27.646;2023-07-16T11:14:41;101653.38;;;38.69;60.31
6028;BME280;3042;43.194;27.646;2023-07-16T11:17:09;101554.63;;;38.33;60.83
6028;BME280;3042;43.194;27.646;2023-07-16T11:19:36;101352.06;;;36.65;59.64
6028;BME280;3042;43.194;27.646;2023-07-16T11:22:05;101660.19;;;38.60;59.82
6028;BME280;3042;43.194;27.646;2023-07-16T11:24:40;101668.28;;;38.44;59.16
6028;BME280;3042;43.194;27.646;2023-07-16T11:27:13;101557.63;;;37.81;59.76
6028;BME280;3042;43.194;27.646;2023-07-16T11:29:45;101647.00;;;38.70;61.90
6028;BME280;3042;43.194;27.646;2023-07-16T11:32:12;101668.47;;;38.41;60.78
6028;BME280;3042;43.194;27.646;2023-07-16T11:34:51;101651.16;;;38.30;60.42
6028;BME280;3042;43.194;27.646;2023-07-16T11:37:19;101672.16;;;38.40;64.33
6028;BME280;3042;43.194;27.646;2023-07-16T11:39:47;101662.50;;;38.52;68.37
6028;BME280;3042;43.194;27.646;2023-07-16T11:42:17;101653.38;;;38.69;68.98
6028;BME280;3042;43.194;27.646;2023-07-16T11:44:50;101659.69;;;38.54;65.41
6028;BME280;3042;43.194;27.646;2023-07-16T11:47:17;101665.97;;;38.38;66.36
6028;BME280;3042;43.194;27.646;2023-07-16T11:49:44;101657.63;;;38.27;63.73
6028;BME280;3042;43.194;27.646;2023-07-16T11:52:11;101664.66;;;38.46;68.37
6028;BME280;3042;43.194;27.646;2023-07-16T11:54:38;101601.00;;;37.94;68.45
6028;BME280;3042;43.194;27.646;2023-07-16T11:57:06;101582.31;;;37.42;67.07
6028;BME280;3042;43.194;27.646;2023-07-16T11:59:33;101685.72;;;37.91;67.79
6028;BME280;3042;43.194;27.646;2023-07-16T12:02:02;101675.53;;;37.96;67.07
6028;BME280;3042;43.194;27.646;2023-07-16T12:04:29;101670.34;;;38.09;68.38
6028;BME280;3042;43.194;27.646;2023-07-16T12:06:56;101647.28;;;38.04;68.98
6028;BME280;3042;43.194;27.646;2023-07-16T12:09:23;101683.09;;;37.90;71.59
6028;BME280;3042;43.194;27.646;2023-07-16T12:11:50;101677.19;;;37.83;71.47
6028;BME280;3042;43.194;27.646;2023-07-16T12:14:17;101670.31;;;37.93;71.51
6028;BME280;3042;43.194;27.646;2023-07-16T12:16:44;101632.13;;;37.52;69.44
6028;BME280;3042;43.194;27.646;2023-07-16T12:19:15;101687.69;;;37.72;70.18
6028;BME280;3042;43.194;27.646;2023-07-16T12:21:42;101673.25;;;37.73;72.07
6028;BME280;3042;43.194;27.646;2023-07-16T12:24:09;101674.84;;;37.77;70.16
6028;BME280;3042;43.194;27.646;2023-07-16T12:26:36;101671.00;;;37.97;73.31
6028;BME280;3042;43.194;27.646;2023-07-16T12:29:03;101686.94;;;37.52;69.56
6028;BME280;3042;43.194;27.646;2023-07-16T12:31:31;101672.72;;;37.15;71.00
6028;BME280;3042;43.194;27.646;2023-07-16T12:33:58;101682.75;;;37.29;72.04
6028;BME280;3042;43.194;27.646;2023-07-16T12:36:28;101637.22;;;37.07;71.69
6028;BME280;3042;43.194;27.646;2023-07-16T12:38:56;101674.25;;;37.54;71.51
6028;BME280;3042;43.194;27.646;2023-07-16T12:41:23;101683.00;;;37.25;71.39
6028;BME280;3042;43.194;27.646;2023-07-16T12:43:50;101485.66;;;36.34;70.31
6028;BME280;3042;43.194;27.646;2023-07-16T12:46:17;101238.75;;;34.98;70.58
6028;BME280;3042;43.194;27.646;2023-07-16T12:48:44;101670.59;;;37.55;71.37
6028;BME280;3042;43.194;27.646;2023-07-16T12:51:11;101688.22;;;37.45;70.47
6028;BME280;3042;43.194;27.646;2023-07-16T12:53:40;101679.34;;;37.61;69.81
6028;BME280;3042;43.194;27.646;2023-07-16T12:56:09;101515.47;;;36.64;69.85
6028;BME280;3042;43.194;27.646;2023-07-16T12:58:36;101676.28;;;37.67;69.19